Time;durP1;ratioP1;P1;durP2;ratioP2;P2;SDS_P1;SDS_P2;PMS_P1;PMS_P2;Temp;Humidity;BMP_temperature;BMP_pressure;BME280_temperature;BME280_humidity;BME280_pressure;Samples;Min_cycle;Max_cycle;Signal;HPM_P1;HPM_P2
2023/10/02 00:03:34;;;;;;;8.38;3.55;;;;;;;17.29;87.00;102075.22;4975842;28;97077;-27
2023/10/02 00:05:59;;;;;;;8.63;3.70;;;;;;;17.35;87.26;102091.22;4973962;28;96652;-27
2023/10/02 00:08:41;;;;;;;11.82;3.67;;;;;;;17.32;86.71;102080.47;4974480;28;96851;-29
2023/10/02 00:14:18;;;;;;;10.67;3.33;;;;;;;17.31;86.68;102075.13;4976132;28;96569;-27
2023/10/02 00:16:58;;;;;;;8.43;3.15;;;;;;;17.31;87.17;102073.25;4974415;28;96573;-27
2023/10/02 00:19:37;;;;;;;10.18;3.75;;;;;;;17.31;86.67;102078.72;4974279;28;96779;-27
2023/10/02 00:22:34;;;;;;;10.70;4.07;;;;;;;17.30;86.89;102078.81;4975105;28;97931;-27
2023/10/02 00:25:22;;;;;;;14.70;4.07;;;;;;;17.27;87.26;102079.06;4975765;28;97842;-27
2023/10/02 00:27:51;;;;;;;9.63;3.40;;;;;;;17.22;86.91;102075.75;4974301;28;96684;-27
2023/10/02 00:30:20;;;;;;;8.93;3.50;;;;;;;17.21;87.18;102072.16;4973999;28;96988;-27
2023/10/02 00:32:47;;;;;;;10.65;3.33;;;;;;;17.16;87.22;102079.78;4974736;28;98022;-26
2023/10/02 00:35:13;;;;;;;10.98;3.92;;;;;;;17.15;87.44;102076.19;4973719;28;101171;-27
2023/10/02 00:37:52;;;;;;;9.15;3.78;;;;;;;17.14;87.02;102076.31;4973984;28;96651;-27
2023/10/02 00:40:22;;;;;;;8.55;3.63;;;;;;;17.16;87.22;102083.44;4972823;28;96846;-28
2023/10/02 00:42:58;;;;;;;8.27;3.30;;;;;;;17.13;87.51;102082.75;4973435;28;101102;-30
2023/10/02 00:45:38;;;;;;;9.63;3.58;;;;;;;17.11;87.37;102077.41;4974572;28;98318;-27
2023/10/02 00:50:54;;;;;;;10.07;3.88;;;;;;;17.09;87.67;102079.34;4976010;28;96657;-28
2023/10/02 00:53:37;;;;;;;7.75;3.33;;;;;;;17.05;87.46;102075.06;4973375;28;101675;-27
2023/10/02 00:56:19;;;;;;;8.55;3.65;;;;;;;16.96;87.50;102067.50;4974736;28;99380;-27
2023/10/02 00:58:54;;;;;;;8.10;3.50;;;;;;;17.02;87.34;102086.25;4974491;28;96479;-27
2023/10/02 01:01:21;;;;;;;9.10;3.33;;;;;;;17.00;87.39;102079.13;4974939;28;96632;-27
2023/10/02 01:06:33;;;;;;;11.93;3.80;;;;;;;16.94;87.31;102066.72;4974943;28;97012;-27
2023/10/02 01:09:00;;;;;;;12.90;4.22;;;;;;;16.93;87.79;102074.06;4973568;28;96551;-27
2023/10/02 01:11:25;;;;;;;6.35;2.88;;;;;;;16.95;87.68;102069.34;4973587;28;96873;-27
2023/10/02 01:13:53;;;;;;;11.95;4.13;;;;;;;16.93;87.55;102059.50;4974541;28;98840;-27
2023/10/02 01:16:20;;;;;;;9.15;3.72;;;;;;;16.92;87.87;102058.63;4973376;28;101264;-27
2023/10/02 01:18:49;;;;;;;10.43;3.78;;;;;;;16.93;87.81;102057.63;4975409;28;96824;-27
2023/10/02 01:21:18;;;;;;;11.27;3.67;;;;;;;16.93;87.79;102056.75;4974952;28;96806;-27
2023/10/02 01:26:35;;;;;;;7.65;3.15;;;;;;;16.91;88.11;102059.59;4975013;28;96898;-27
2023/10/02 01:29:01;;;;;;;10.35;3.63;;;;;;;16.90;88.29;102055.13;4973393;28;96658;-27
2023/10/02 01:31:35;;;;;;;11.38;3.38;;;;;;;16.87;87.90;102063.50;4973256;28;96881;-27
2023/10/02 01:34:02;;;;;;;9.32;3.95;;;;;;;16.84;88.29;102058.25;4974419;28;99423;-27
2023/10/02 01:36:35;;;;;;;8.68;3.30;;;;;;;16.85;88.37;102054.56;4972879;28;101014;-27
2023/10/02 01:39:12;;;;;;;11.98;3.65;;;;;;;16.87;88.93;102057.19;4972865;28;96732;-28
2023/10/02 01:41:38;;;;;;;9.68;3.65;;;;;;;16.84;88.58;102052.78;4973646;28;96666;-28
2023/10/02 01:44:10;;;;;;;9.43;3.30;;;;;;;16.82;88.24;102049.28;4973904;28;97942;-27
2023/10/02 01:46:37;;;;;;;9.85;3.55;;;;;;;16.83;88.43;102052.88;4974163;28;99478;-27
2023/10/02 01:49:03;;;;;;;10.65;4.18;;;;;;;16.85;88.25;102050.91;4972725;28;96628;-26
2023/10/02 01:51:32;;;;;;;7.78;4.25;;;;;;;16.82;88.76;102048.41;4975614;28;96823;-27
2023/10/02 01:54:04;;;;;;;13.82;4.10;;;;;;;16.84;88.99;102063.75;4977645;28;98051;-27
2023/10/02 01:56:31;;;;;;;13.90;4.07;;;;;;;16.80;89.01;102066.78;4977497;28;97753;-27
2023/10/02 01:59:11;;;;;;;8.10;3.35;;;;;;;16.82;89.10;102059.34;4977769;28;96458;-27
2023/10/02 02:01:55;;;;;;;9.45;3.15;;;;;;;16.74;88.95;102055.25;4977918;28;96530;-27
2023/10/02 02:04:22;;;;;;;12.07;3.80;;;;;;;16.77;88.86;102055.03;4977109;28;99420;-27
2023/10/02 02:06:54;;;;;;;9.68;3.60;;;;;;;16.75;88.41;102051.53;4977852;28;97283;-27
2023/10/02 02:09:23;;;;;;;12.75;3.75;;;;;;;16.77;88.86;102048.69;4977669;28;96486;-27
2023/10/02 02:12:05;;;;;;;11.27;4.10;;;;;;;16.78;89.04;102050.47;4976249;28;96972;-26
2023/10/02 02:14:40;;;;;;;8.32;3.38;;;;;;;16.77;88.83;102033.13;4976650;28;99461;-27
2023/10/02 02:17:10;;;;;;;12.43;4.00;;;;;;;16.75;89.00;102024.16;4977183;28;99431;-27
2023/10/02 02:19:48;;;;;;;9.68;3.90;;;;;;;16.81;88.43;102033.00;4976082;28;96655;-27
2023/10/02 02:22:17;;;;;;;8.63;3.60;;;;;;;16.79;88.12;102030.34;4977499;28;96668;-27
2023/10/02 02:24:43;;;;;;;15.00;4.40;;;;;;;16.79;88.57;102030.34;4977081;28;98056;-28
2023/10/02 02:27:08;;;;;;;8.77;3.35;;;;;;;16.79;89.04;102037.69;4975404;28;100470;-27
2023/10/02 02:29:34;;;;;;;12.93;3.67;;;;;;;16.79;89.14;102046.75;4977302;28;96681;-27
2023/10/02 02:32:00;;;;;;;8.55;2.78;;;;;;;16.77;88.97;102035.00;4977685;28;96774;-26
2023/10/02 02:34:26;;;;;;;10.95;3.30;;;;;;;16.72;89.19;102028.97;4976723;28;99033;-26
2023/10/02 02:36:54;;;;;;;12.07;3.92;;;;;;;16.77;88.82;102029.53;4975630;28;101040;-27
2023/10/02 02:39:22;;;;;;;12.27;3.20;;;;;;;16.75;89.04;102035.09;4975157;28;96671;-27
2023/10/02 02:42:18;;;;;;;6.28;2.70;;;;;;;16.75;89.38;102028.75;4975813;28;97003;-26
2023/10/02 02:44:43;;;;;;;9.63;3.80;;;;;;;16.73;89.32;102034.34;4975824;28;97424;-27
2023/10/02 02:47:09;;;;;;;7.70;2.72;;;;;;;16.72;89.14;102032.59;4975469;28;101076;-27
2023/10/02 02:49:48;;;;;;;8.93;3.20;;;;;;;16.69;89.22;102032.81;4977107;28;96886;-27
2023/10/02 02:52:22;;;;;;;8.88;3.03;;;;;;;16.72;89.36;102042.66;4976993;28;97051;-27
2023/10/02 02:54:58;;;;;;;12.02;3.20;;;;;;;16.70;89.06;102050.97;4976680;28;99654;-27
2023/10/02 02:57:26;;;;;;;8.75;3.55;;;;;;;16.62;89.51;102042.41;4976896;28;99003;-27
2023/10/02 03:00:24;;;;;;;8.07;3.10;;;;;;;16.64;89.29;102045.94;4975567;28;96730;-27
2023/10/02 03:02:45;;;;;;;9.07;3.50;;;;;;;16.65;89.40;102049.53;4975499;28;98276;-27
2023/10/02 03:05:12;;;;;;;10.77;3.95;;;;;;;16.61;89.88;102051.59;4974556;28;100965;-27
2023/10/02 03:07:39;;;;;;;11.20;3.53;;;;;;;16.56;89.75;102045.53;4976273;28;99380;-27
2023/10/02 03:10:10;;;;;;;9.98;3.85;;;;;;;16.60;89.68;102057.19;4975274;28;96569;-28
2023/10/02 03:12:44;;;;;;;8.73;3.08;;;;;;;16.58;89.62;102056.41;4976665;28;96644;-28
2023/10/02 03:15:14;;;;;;;10.10;4.47;;;;;;;16.55;90.05;102049.28;4974956;28;100100;-27
2023/10/02 03:17:41;;;;;;;11.07;3.65;;;;;;;16.55;89.83;102044.69;4976252;28;99251;-27
2023/10/02 03:20:22;;;;;;;7.53;3.42;;;;;;;16.51;90.09;102039.50;4976730;28;96574;-27
2023/10/02 03:22:57;;;;;;;11.30;3.72;;;;;;;16.54;89.68;102051.16;4976867;28;96681;-27
2023/10/02 03:25:28;;;;;;;8.18;2.92;;;;;;;16.52;89.86;102039.44;4974766;28;100870;-28
2023/10/02 03:27:55;;;;;;;8.77;3.47;;;;;;;16.53;90.06;102045.75;4976142;28;98417;-27
2023/10/02 03:30:35;;;;;;;9.40;3.58;;;;;;;16.50;90.00;102043.25;4975806;28;96602;-27
2023/10/02 03:33:02;;;;;;;9.13;3.35;;;;;;;16.52;90.96;102046.75;4975081;28;96777;-27
2023/10/02 03:35:28;;;;;;;9.43;3.33;;;;;;;16.48;90.60;102046.06;4974644;28;101274;-26
2023/10/02 03:37:53;;;;;;;13.55;3.97;;;;;;;16.42;90.75;102035.56;4975832;28;96815;-27
2023/10/02 03:40:20;;;;;;;10.77;3.58;;;;;;;16.43;90.27;102031.84;4976092;28;96528;-27
2023/10/02 03:42:48;;;;;;;9.73;3.50;;;;;;;16.43;90.42;102034.56;4976207;28;96779;-27
2023/10/02 03:45:13;;;;;;;10.77;3.22;;;;;;;16.42;90.66;102035.56;4975449;28;100073;-27
2023/10/02 03:47:41;;;;;;;11.95;3.60;;;;;;;16.38;90.50;102023.06;4974670;28;101446;-27
2023/10/02 03:50:12;;;;;;;10.48;4.00;;;;;;;16.41;91.31;102031.06;4975963;28;96774;-27
2023/10/02 03:52:41;;;;;;;9.18;3.60;;;;;;;16.39;90.85;102026.69;4974644;28;96877;-28
2023/10/02 03:55:17;;;;;;;8.80;3.63;;;;;;;16.38;91.13;102019.47;4973722;28;101465;-27
2023/10/02 03:57:55;;;;;;;10.23;3.38;;;;;;;16.37;91.25;102029.50;4975577;28;99367;-27
2023/10/02 04:00:28;;;;;;;8.02;3.15;;;;;;;16.43;91.17;102033.69;4975950;28;96710;-27
2023/10/02 04:02:59;;;;;;;9.70;3.03;;;;;;;16.37;91.23;102023.16;4974367;28;96729;-27
2023/10/02 04:05:43;;;;;;;10.50;3.30;;;;;;;16.43;91.15;102020.91;4975472;28;99732;-27
2023/10/02 04:08:22;;;;;;;9.48;3.50;;;;;;;16.44;90.62;102024.50;4975394;28;98666;-27
2023/10/02 04:10:55;;;;;;;11.15;4.15;;;;;;;16.43;91.17;102020.91;4975622;28;96625;-29
2023/10/02 04:13:23;;;;;;;8.77;3.33;;;;;;;16.44;91.01;102011.69;4976158;28;96583;-27
2023/10/02 04:15:53;;;;;;;14.02;4.28;;;;;;;16.43;91.38;102007.22;4973635;28;101406;-27
2023/10/02 04:18:45;;;;;;;9.15;3.33;;;;;;;16.40;90.99;101999.22;4975580;28;97694;-27
2023/10/02 04:21:09;;;;;;;12.43;3.72;;;;;;;16.40;91.17;101984.66;4974653;28;96711;-28
2023/10/02 04:23:40;;;;;;;10.60;3.60;;;;;;;16.42;91.14;102001.84;4974669;28;96612;-30
2023/10/02 04:26:21;;;;;;;10.88;3.42;;;;;;;16.42;91.42;102008.22;4973844;28;100879;-27
2023/10/02 04:28:55;;;;;;;10.55;4.10;;;;;;;16.44;91.93;102003.50;4973957;28;98930;-28
2023/10/02 04:31:22;;;;;;;10.75;3.28;;;;;;;16.40;91.57;102001.06;4974164;28;96590;-27
2023/10/02 04:36:53;;;;;;;13.95;4.15;;;;;;;16.40;92.00;102001.97;4952463;28;97928;-28
2023/10/02 04:40:23;;;;;;;10.27;3.80;;;;;;;16.35;92.48;102005.00;4953642;28;97811;-27
2023/10/02 04:42:14;;;;;;;10.30;3.60;;;;;;;16.35;92.18;101998.63;4954623;28;96903;-27
2023/10/02 04:44:44;;;;;;;10.10;3.65;;;;;;;16.35;91.52;102002.28;4973006;28;96955;-27
2023/10/02 04:47:17;;;;;;;11.57;3.53;;;;;;;16.40;91.72;102006.53;4973176;28;101896;-27
2023/10/02 04:50:34;;;;;;;12.82;4.22;;;;;;;16.40;91.31;102010.19;4974993;28;99185;-28
2023/10/02 04:52:55;;;;;;;12.50;3.88;;;;;;;16.35;92.13;102006.84;4974732;28;96889;-28
2023/10/02 04:55:27;;;;;;;10.05;3.90;;;;;;;16.34;91.71;102016.03;4973897;28;96643;-28
2023/10/02 04:57:56;;;;;;;9.15;3.50;;;;;;;16.32;91.94;102023.47;4974936;28;98588;-27
2023/10/02 05:00:32;;;;;;;11.95;3.65;;;;;;;16.34;91.70;102018.78;4973365;28;101061;-27
2023/10/02 05:03:18;;;;;;;7.80;3.60;;;;;;;16.32;91.60;102018.88;4973959;28;96630;-28
2023/10/02 05:05:51;;;;;;;11.77;3.85;;;;;;;16.32;92.83;102018.00;4975732;28;96527;-28
2023/10/02 05:08:21;;;;;;;8.48;3.58;;;;;;;16.31;92.31;102014.41;4974860;28;98041;-27
2023/10/02 05:10:56;;;;;;;9.13;3.83;;;;;;;16.24;91.92;102004.84;4974893;28;97985;-28
2023/10/02 05:16:09;;;;;;;12.70;3.75;;;;;;;16.30;91.78;102014.47;4975421;28;96535;-27
2023/10/02 05:18:35;;;;;;;9.88;3.70;;;;;;;16.25;92.03;102019.38;4973103;28;101209;-27
2023/10/02 05:21:04;;;;;;;10.18;3.20;;;;;;;16.26;92.32;102018.44;4974463;28;99116;-27
2023/10/02 05:23:30;;;;;;;8.80;3.78;;;;;;;16.22;92.18;102012.28;4974442;28;96709;-27
2023/10/02 05:26:02;;;;;;;10.00;3.92;;;;;;;16.24;91.88;102014.91;4974817;28;96849;-28
2023/10/02 05:28:42;;;;;;;;;;;;;;;16.24;92.37;102023.13;4977222;28;97984;-27
2023/10/02 05:31:12;;;;;;;10.70;2.95;;;;;;;16.20;91.73;102010.63;4978455;28;97989;-28
2023/10/02 05:33:38;;;;;;;9.52;3.42;;;;;;;16.20;92.18;102010.63;4976254;28;96780;-27
2023/10/02 05:36:08;;;;;;;34.22;17.42;;;;;;;16.20;92.88;102016.97;4976916;28;96978;-29
2023/10/02 05:38:34;;;;;;;23.20;12.85;;;;;;;16.16;92.67;102020.91;4976770;28;97975;-27
2023/10/02 05:41:03;;;;;;;13.80;5.10;;;;;;;16.16;92.61;102022.72;4975887;28;99300;-28
2023/10/02 05:43:31;;;;;;;16.17;4.18;;;;;;;16.18;92.35;102028.97;4974940;28;96805;-27
2023/10/02 05:45:57;;;;;;;10.32;4.05;;;;;;;16.17;92.85;102030.84;4976132;28;96837;-27
2023/10/02 05:50:53;;;;;;;12.73;4.28;;;;;;;16.17;92.46;102038.19;4977023;28;97807;-27
2023/10/02 05:53:20;;;;;;;9.13;3.53;;;;;;;16.17;92.18;102032.72;4974796;28;97044;-28
2023/10/02 05:56:05;;;;;;;10.80;3.78;;;;;;;16.17;92.44;102039.03;4972327;28;97289;-31
2023/10/02 05:58:37;;;;;;;13.68;3.83;;;;;;;16.16;92.52;102047.34;4974243;28;97813;-31
2023/10/02 06:01:05;;;;;;;11.68;4.07;;;;;;;16.16;92.20;102047.34;4973327;28;99468;-32
2023/10/02 06:03:34;;;;;;;13.38;3.80;;;;;;;16.20;92.78;102041.56;4971820;28;97167;-29
2023/10/02 06:06:18;;;;;;;12.82;3.72;;;;;;;16.23;92.43;102043.22;4973568;28;97638;-33
2023/10/02 06:09:16;;;;;;;8.30;3.17;;;;;;;16.22;92.73;102044.22;4975986;28;98017;-27
2023/10/02 06:12:00;;;;;;;8.52;3.20;;;;;;;16.25;92.76;102049.47;4977460;28;97863;-27
2023/10/02 06:14:27;;;;;;;13.93;4.05;;;;;;;16.23;92.85;102043.22;4977275;28;96659;-28
2023/10/02 06:16:53;;;;;;;11.18;4.03;;;;;;;16.28;92.68;102049.25;4976066;28;96902;-27
2023/10/02 06:19:19;;;;;;;10.35;3.83;;;;;;;16.30;93.07;102050.03;4976714;28;99532;-28
2023/10/02 06:22:00;;;;;;;11.88;3.90;;;;;;;16.28;92.95;102044.69;4976599;28;99333;-27
2023/10/02 06:24:29;;;;;;;12.88;3.80;;;;;;;16.32;93.59;102048.94;4975318;28;97156;-27
2023/10/02 06:29:39;;;;;;;13.25;4.90;;;;;;;16.35;92.67;102045.13;4975291;28;97141;-27
2023/10/02 06:32:09;;;;;;;10.82;4.30;;;;;;;16.37;92.69;102045.03;4975634;28;101004;-27
2023/10/02 06:34:37;;;;;;;14.75;4.65;;;;;;;16.43;92.63;102055.59;4976163;28;96595;-28
2023/10/02 06:37:07;;;;;;;11.50;4.30;;;;;;;16.46;92.32;102058.97;4980788;28;97173;-27
2023/10/02 06:39:35;;;;;;;11.70;4.22;;;;;;;16.49;92.54;102052.41;4976928;28;97549;-27
2023/10/02 06:42:15;;;;;;;11.25;4.30;;;;;;;16.53;92.54;102059.44;4975479;28;100780;-27
2023/10/02 06:44:53;;;;;;;12.32;3.90;;;;;;;16.54;92.15;102055.72;4976897;28;96795;-27
2023/10/02 06:47:29;;;;;;;8.45;3.47;;;;;;;16.60;92.23;102059.91;4976217;28;96720;-27
2023/10/02 06:52:41;;;;;;;7.75;3.65;;;;;;;16.57;92.10;102044.59;4994997;28;98524;-28
2023/10/02 06:55:12;;;;;;;11.25;4.38;;;;;;;16.62;92.43;102053.34;4995090;28;96532;-28
2023/10/02 06:57:49;;;;;;;15.60;4.07;;;;;;;16.63;92.34;102054.22;4997183;28;96653;-28
2023/10/02 07:00:19;;;;;;;9.55;4.18;;;;;;;16.64;92.20;102059.59;4996779;28;97993;-27
2023/10/02 07:02:56;;;;;;;12.40;4.30;;;;;;;16.64;91.99;102061.47;4995069;28;100907;-27
2023/10/02 07:05:32;;;;;;;9.30;3.83;;;;;;;16.65;92.89;102063.22;4995496;28;96752;-28
2023/10/02 07:08:28;;;;;;;11.45;4.43;;;;;;;16.69;92.30;102064.75;4995468;28;96685;-27
2023/10/02 07:10:51;;;;;;;10.07;4.22;;;;;;;16.72;91.76;102067.28;4996010;28;98739;-27
2023/10/02 07:13:20;;;;;;;8.55;4.38;;;;;;;16.74;92.26;102068.06;4995181;28;100762;-28
2023/10/02 07:15:57;;;;;;;15.02;4.50;;;;;;;16.82;92.82;102067.56;4995137;28;96565;-28
2023/10/02 07:18:38;;;;;;;12.30;4.47;;;;;;;16.85;92.50;102065.50;4996730;28;96605;-27
2023/10/02 07:21:07;;;;;;;10.82;3.83;;;;;;;16.91;93.17;102056.84;4994491;28;100998;-27
2023/10/02 07:23:37;;;;;;;13.32;4.43;;;;;;;16.90;92.21;102052.38;4994594;28;101045;-27
2023/10/02 07:26:04;;;;;;;10.68;4.28;;;;;;;16.98;92.56;102060.06;4995150;28;96717;-27
2023/10/02 07:28:31;;;;;;;12.88;4.72;;;;;;;16.98;91.73;102066.41;4996222;28;96867;-27
2023/10/02 07:30:57;;;;;;;14.07;4.50;;;;;;;17.07;91.71;102073.09;4994512;28;101089;-28
2023/10/02 07:33:23;;;;;;;12.38;4.28;;;;;;;17.05;92.04;102072.34;4994439;28;101086;-27
2023/10/02 07:35:54;;;;;;;11.68;4.25;;;;;;;17.11;92.61;102071.03;4996084;28;96477;-27
2023/10/02 07:38:30;;;;;;;11.48;4.75;;;;;;;17.13;92.20;102086.34;4996501;28;96679;-27
2023/10/02 07:41:06;;;;;;;11.10;4.65;;;;;;;17.18;92.15;102083.28;4995521;28;99374;-28
2023/10/02 07:43:31;;;;;;;10.38;4.30;;;;;;;17.25;91.87;102089.22;4994005;28;100956;-27
2023/10/02 07:46:02;;;;;;;12.75;4.50;;;;;;;17.30;91.70;102092.53;4994111;28;96646;-27
2023/10/02 07:48:33;;;;;;;11.18;3.97;;;;;;;17.40;91.45;102089.03;4994575;28;96726;-28
2023/10/02 07:51:00;;;;;;;13.27;4.40;;;;;;;17.46;91.47;102103.28;4995253;28;99736;-27
2023/10/02 07:53:38;;;;;;;12.07;4.65;;;;;;;17.40;91.70;102083.56;4994258;28;99027;-27
2023/10/02 07:56:11;;;;;;;10.45;4.22;;;;;;;17.56;91.84;102096.16;4994531;28;96724;-28
2023/10/02 07:58:41;;;;;;;13.40;4.90;;;;;;;17.60;91.74;102086.75;4995866;28;96600;-27
2023/10/02 08:01:12;;;;;;;10.85;4.07;;;;;;;17.72;91.32;102098.69;4995570;28;98000;-27
2023/10/02 08:03:44;;;;;;;10.07;4.22;;;;;;;17.75;91.49;102093.84;4994638;28;100801;-28
2023/10/02 08:06:21;;;;;;;14.80;4.88;;;;;;;17.80;91.45;102090.78;4994367;28;96798;-27
2023/10/02 08:11:50;;;;;;;14.73;4.22;;;;;;;17.83;91.55;102086.00;4995264;28;97082;-27
2023/10/02 08:14:35;;;;;;;10.48;4.32;;;;;;;17.89;91.02;102089.28;4993994;28;101245;-28
2023/10/02 08:19:54;;;;;;;11.73;4.35;;;;;;;17.94;91.10;102084.34;4993443;28;96900;-27
2023/10/02 08:22:35;;;;;;;10.07;3.95;;;;;;;17.98;90.87;102088.59;4993843;28;101172;-28
2023/10/02 08:25:04;;;;;;;16.02;4.95;;;;;;;17.96;90.73;102079.63;4995254;28;99133;-27
2023/10/02 08:27:32;;;;;;;14.30;4.57;;;;;;;17.97;91.30;102085.00;4993840;28;96761;-27
2023/10/02 08:29:57;;;;;;;11.23;4.70;;;;;;;18.01;91.75;102089.25;4996147;28;96743;-27
2023/10/02 08:32:30;;;;;;;13.68;4.63;;;;;;;17.99;91.75;102085.72;4995007;28;98083;-27
2023/10/02 08:34:56;;;;;;;12.60;4.63;;;;;;;18.01;91.54;102088.38;4993845;28;101018;-27
2023/10/02 08:37:23;;;;;;;13.35;4.10;;;;;;;18.15;91.24;102084.63;4994965;28;96596;-28
2023/10/02 08:39:51;;;;;;;15.38;4.70;;;;;;;18.20;91.29;102079.66;4993653;28;96824;-27
2023/10/02 08:42:18;;;;;;;14.18;4.78;;;;;;;18.28;90.87;102079.97;4984409;28;101386;-27
2023/10/02 08:44:43;;;;;;;8.65;4.63;;;;;;;18.36;90.64;102080.28;4984442;28;101194;-27
2023/10/02 08:47:11;;;;;;;14.60;5.15;;;;;;;18.42;90.53;102077.09;4995186;28;96593;-27
2023/10/02 08:49:38;;;;;;;10.32;3.75;;;;;;;18.58;90.18;102085.03;4975069;28;96936;-28
2023/10/02 08:52:11;;;;;;;13.95;4.40;;;;;;;18.68;90.05;102091.56;4961255;28;100919;-29
2023/10/02 08:54:41;;;;;;;15.23;5.07;;;;;;;18.74;89.93;102082.00;4955466;28;97856;-27
2023/10/02 08:57:08;;;;;;;11.60;5.30;;;;;;;18.77;90.40;102090.03;4955462;28;96681;-27
2023/10/02 08:59:40;;;;;;;11.23;5.13;;;;;;;18.84;89.89;102095.94;4955492;28;96959;-27
2023/10/02 09:02:07;;;;;;;;;;;;;;;18.93;90.27;102097.09;4954172;28;99277;-27
2023/10/02 09:04:33;;;;;;;11.70;5.45;;;;;;;19.02;89.58;102097.25;4953994;28;101087;-27
2023/10/02 09:06:58;;;;;;;15.68;5.22;;;;;;;19.06;89.04;102078.66;4954080;28;96561;-27
2023/10/02 09:09:36;;;;;;;14.93;5.90;;;;;;;19.01;88.84;102076.28;4955410;28;96784;-27
2023/10/02 09:12:03;;;;;;;15.48;5.13;;;;;;;19.12;88.47;102055.34;4955053;28;99791;-28
2023/10/02 09:20:07;;;;;;;14.20;5.45;;;;;;;19.48;88.19;102066.16;4955770;28;96663;-27
2023/10/02 09:22:41;;;;;;;13.43;4.97;;;;;;;19.56;88.03;102068.28;4954962;28;99881;-27
2023/10/02 09:25:23;;;;;;;14.52;5.13;;;;;;;19.79;87.44;102054.59;4955286;28;97930;-27
2023/10/02 09:27:55;;;;;;;13.27;5.20;;;;;;;19.97;86.71;102054.94;4953225;28;96658;-27
2023/10/02 09:33:05;;;;;;;16.40;4.93;;;;;;;20.15;85.37;102046.06;4953061;28;97932;-27
2023/10/02 09:38:04;;;;;;;11.57;5.05;;;;;;;20.18;86.01;102058.69;4955048;28;96494;-28
2023/10/02 09:40:53;;;;;;;;;;;;;;;20.19;85.62;102049.44;4955355;28;96594;-28
2023/10/02 09:43:23;;;;;;;9.75;4.00;;;;;;;20.24;85.71;102052.69;4953932;28;98976;-27
2023/10/02 09:45:53;;;;;;;17.58;4.82;;;;;;;20.25;85.49;102053.53;4955080;28;99353;-27
2023/10/02 09:51:25;;;;;;;10.30;3.95;;;;;;;20.14;85.71;102046.16;4952732;28;96540;-27
2023/10/02 09:54:05;;;;;;;16.17;4.93;;;;;;;20.00;86.03;102046.44;4952825;28;100829;-27
2023/10/02 09:57:12;;;;;;;13.50;4.07;;;;;;;20.02;86.32;102044.44;4954638;28;99835;-27
2023/10/02 09:59:48;;;;;;;8.10;3.95;;;;;;;20.06;86.21;102051.44;4980253;28;96818;-27
2023/10/02 10:05:23;;;;;;;10.85;4.60;;;;;;;20.13;85.70;102031.53;4954541;28;97528;-28
2023/10/02 10:13:32;;;;;;;10.77;4.05;;;;;;;20.26;86.49;102039.66;4955996;28;96720;-27
2023/10/02 10:16:19;;;;;;;13.65;5.03;;;;;;;20.30;86.09;102049.41;4956266;28;101142;-27
2023/10/02 10:19:26;;;;;;;9.13;4.20;;;;;;;20.27;86.34;102046.91;4956314;28;100894;-27
2023/10/02 10:22:00;;;;;;;11.00;3.72;;;;;;;20.19;85.89;102032.03;4957178;28;96763;-27
2023/10/02 10:25:22;;;;;;;13.20;4.68;;;;;;;20.32;86.10;102039.13;4956434;28;96821;-27
2023/10/02 10:27:55;;;;;;;9.43;4.43;;;;;;;20.57;85.50;102034.38;4957046;28;99250;-27
2023/10/02 10:30:33;;;;;;;10.60;4.85;;;;;;;20.91;83.90;102036.97;4956026;28;100820;-27
2023/10/02 10:35:52;;;;;;;11.95;4.82;;;;;;;21.08;82.90;102013.47;4956286;28;96552;-28
2023/10/02 10:38:25;;;;;;;10.00;3.80;;;;;;;21.45;82.94;102022.09;4956129;28;99038;-27
2023/10/02 10:40:54;;;;;;;9.13;4.72;;;;;;;21.66;81.77;102012.94;4955849;28;100776;-27
2023/10/02 10:43:21;;;;;;;13.15;4.90;;;;;;;21.95;80.96;102026.84;4955332;28;98022;-28
2023/10/02 10:45:51;;;;;;;11.77;5.00;;;;;;;21.78;79.47;102025.63;4956217;28;96592;-27
2023/10/02 10:48:24;;;;;;;12.38;4.47;;;;;;;21.72;80.07;102020.66;4956776;28;99376;-27
2023/10/02 10:50:59;;;;;;;15.13;4.50;;;;;;;21.74;80.38;102029.69;4955918;28;100952;-27
2023/10/02 10:53:28;;;;;;;11.15;4.93;;;;;;;21.65;80.51;102028.63;4957019;28;96861;-28
2023/10/02 10:56:03;;;;;;;12.32;4.75;;;;;;;21.59;80.95;102020.88;4956173;28;96914;-27
2023/10/02 10:58:36;;;;;;;11.88;4.50;;;;;;;21.54;81.46;102032.31;4955881;28;101328;-27
2023/10/02 11:01:05;;;;;;;14.70;4.85;;;;;;;21.58;81.64;102028.28;4955835;28;100796;-27
2023/10/02 11:03:31;;;;;;;12.05;4.28;;;;;;;21.47;81.97;102020.09;4957236;28;96619;-27
2023/10/02 11:06:02;;;;;;;14.70;4.63;;;;;;;21.46;82.19;102034.91;4957714;28;96855;-28
2023/10/02 11:08:29;;;;;;;10.17;4.07;;;;;;;21.47;81.98;102027.50;4955682;28;100945;-29
2023/10/02 11:11:19;;;;;;;12.90;4.97;;;;;;;21.34;81.90;102022.19;4955611;28;101151;-27
2023/10/02 11:13:54;;;;;;;13.55;4.15;;;;;;;21.22;82.13;102015.88;4957094;28;96668;-28
2023/10/02 11:16:36;;;;;;;10.65;4.00;;;;;;;21.20;82.52;102021.50;4955548;28;96731;-27
2023/10/02 11:19:14;;;;;;;;;;;;;;;21.19;82.76;102016.16;4955897;28;101191;-27
2023/10/02 11:21:59;;;;;;;9.15;3.58;;;;;;;21.21;82.64;102015.00;4957021;28;97811;-28
2023/10/02 11:24:25;;;;;;;12.70;3.83;;;;;;;21.40;82.54;102019.78;4956021;28;96478;-29
2023/10/02 11:26:53;;;;;;;13.50;4.53;;;;;;;21.67;81.42;102009.19;4956870;28;96956;-27
2023/10/02 11:29:22;;;;;;;12.38;3.97;;;;;;;21.81;80.46;102009.66;4956534;28;98008;-28
2023/10/02 11:32:19;;;;;;;14.00;3.85;;;;;;;21.82;80.47;102010.53;4955456;28;100809;-28
2023/10/02 11:34:48;;;;;;;9.98;4.00;;;;;;;21.81;80.53;102001.41;4957210;28;96754;-27
2023/10/02 11:37:15;;;;;;;10.10;3.80;;;;;;;21.88;80.03;102001.72;4955274;28;96864;-27
2023/10/02 11:39:42;;;;;;;9.95;3.78;;;;;;;21.98;79.44;101997.09;4954433;28;101586;-27
2023/10/02 11:42:08;;;;;;;10.93;4.18;;;;;;;22.15;79.56;101991.91;4954950;28;99370;-27
2023/10/02 11:44:33;;;;;;;13.88;4.30;;;;;;;22.34;79.38;101993.84;4987668;28;96776;-27
2023/10/02 11:47:02;;;;;;;11.27;3.97;;;;;;;22.41;78.91;102003.31;4956843;28;96798;-27
2023/10/02 11:49:29;;;;;;;13.82;4.55;;;;;;;22.39;78.38;101984.13;4956101;28;98022;-28
2023/10/02 11:52:00;;;;;;;8.30;3.78;;;;;;;22.32;77.75;101980.19;4954718;28;100743;-27
2023/10/02 11:54:26;;;;;;;10.18;4.00;;;;;;;22.29;78.38;101977.72;4956740;28;96662;-27
2023/10/02 11:56:52;;;;;;;15.10;4.57;;;;;;;22.38;78.05;101976.88;4956855;28;96798;-27
2023/10/02 11:59:17;;;;;;;8.90;3.65;;;;;;;22.50;78.44;101969.31;4956227;28;98046;-27
2023/10/02 12:01:45;;;;;;;12.80;3.70;;;;;;;22.50;77.91;101972.06;4956184;28;97219;-27
2023/10/02 12:04:10;;;;;;;11.52;4.13;;;;;;;22.65;76.79;101978.03;4954301;28;97942;-28
2023/10/02 12:06:38;;;;;;;14.48;4.43;;;;;;;22.74;76.20;101971.63;4956399;28;96476;-27
2023/10/02 12:09:04;;;;;;;11.30;3.67;;;;;;;22.66;76.84;101974.22;4954840;28;97971;-27
2023/10/02 12:11:33;;;;;;;12.13;3.83;;;;;;;22.69;77.04;101961.03;4954580;28;101308;-27
2023/10/02 12:13:59;;;;;;;12.90;3.78;;;;;;;22.79;76.42;101960.13;4956122;28;96779;-27
2023/10/02 12:16:25;;;;;;;9.82;3.85;;;;;;;22.77;76.00;101960.28;4956423;28;96801;-27
2023/10/02 12:18:51;;;;;;;10.23;4.15;;;;;;;22.90;76.66;101954.44;4954218;28;99011;-27
2023/10/02 12:21:19;;;;;;;9.63;3.55;;;;;;;22.96;75.01;101947.47;4954810;28;100905;-27
2023/10/02 12:23:44;;;;;;;13.75;3.67;;;;;;;23.05;76.46;101950.22;4954807;28;96900;-27
2023/10/02 12:26:17;;;;;;;10.13;3.97;;;;;;;23.09;75.61;101945.25;4956208;28;96750;-28
2023/10/02 12:28:43;;;;;;;14.68;4.60;;;;;;;23.18;75.01;101930.53;4955120;28;97800;-27
2023/10/02 12:31:14;;;;;;;13.25;4.28;;;;;;;23.24;74.90;101924.41;4987207;28;100799;-28
2023/10/02 12:33:44;;;;;;;9.43;3.78;;;;;;;23.27;75.29;101912.19;4954445;28;96688;-27
2023/10/02 12:36:17;;;;;;;12.07;4.35;;;;;;;23.39;73.93;101922.03;4954350;28;96599;-27
2023/10/02 12:38:43;;;;;;;12.13;4.18;;;;;;;23.56;74.35;101916.72;4955554;28;99364;-27
2023/10/02 12:41:22;;;;;;;12.02;3.58;;;;;;;23.60;74.62;101902.44;4955285;28;97448;-27